sensor_id;sensor_type;location;lat;lon;timestamp;P1;durP1;ratioP1;P2;durP2;ratioP2
19675;SDS011;39539;52.202;9.876;2023-09-30T00:00:51;9.25;;;4.75;;
19675;SDS011;39539;52.202;9.876;2023-09-30T00:03:20;7.97;;;4.88;;
19675;SDS011;39539;52.202;9.876;2023-09-30T00:08:31;8.05;;;5.45;;
19675;SDS011;39539;52.202;9.876;2023-09-30T00:11:01;9.25;;;5.25;;
19675;SDS011;39539;52.202;9.876;2023-09-30T00:13:27;11.98;;;5.65;;
19675;SDS011;39539;52.202;9.876;2023-09-30T00:15:58;7.43;;;5.07;;
19675;SDS011;39539;52.202;9.876;2023-09-30T00:18:27;8.00;;;5.40;;
19675;SDS011;39539;52.202;9.876;2023-09-30T00:20:54;10.20;;;5.85;;
19675;SDS011;39539;52.202;9.876;2023-09-30T00:23:19;9.23;;;5.70;;
19675;SDS011;39539;52.202;9.876;2023-09-30T00:25:46;7.43;;;4.95;;
19675;SDS011;39539;52.202;9.876;2023-09-30T00:28:13;10.43;;;5.70;;
19675;SDS011;39539;52.202;9.876;2023-09-30T00:30:55;12.00;;;5.07;;
19675;SDS011;39539;52.202;9.876;2023-09-30T00:33:20;8.70;;;4.88;;
19675;SDS011;39539;52.202;9.876;2023-09-30T00:35:46;12.35;;;5.80;;
19675;SDS011;39539;52.202;9.876;2023-09-30T00:38:14;8.45;;;5.70;;
19675;SDS011;39539;52.202;9.876;2023-09-30T00:40:50;13.80;;;5.40;;
19675;SDS011;39539;52.202;9.876;2023-09-30T00:43:24;9.02;;;6.13;;
19675;SDS011;39539;52.202;9.876;2023-09-30T00:46:13;9.48;;;5.80;;
19675;SDS011;39539;52.202;9.876;2023-09-30T00:48:47;10.13;;;5.43;;
19675;SDS011;39539;52.202;9.876;2023-09-30T00:51:14;7.88;;;5.03;;
19675;SDS011;39539;52.202;9.876;2023-09-30T00:53:41;10.20;;;5.57;;
19675;SDS011;39539;52.202;9.876;2023-09-30T00:56:08;8.43;;;5.13;;
19675;SDS011;39539;52.202;9.876;2023-09-30T00:58:35;10.63;;;5.30;;
19675;SDS011;39539;52.202;9.876;2023-09-30T01:01:04;7.38;;;5.45;;
19675;SDS011;39539;52.202;9.876;2023-09-30T01:03:31;9.68;;;5.35;;
19675;SDS011;39539;52.202;9.876;2023-09-30T01:05:58;10.07;;;5.40;;
19675;SDS011;39539;52.202;9.876;2023-09-30T01:08:27;8.13;;;5.40;;
19675;SDS011;39539;52.202;9.876;2023-09-30T01:10:54;11.35;;;5.57;;
19675;SDS011;39539;52.202;9.876;2023-09-30T01:13:20;11.70;;;6.10;;
19675;SDS011;39539;52.202;9.876;2023-09-30T01:15:45;10.73;;;6.03;;
19675;SDS011;39539;52.202;9.876;2023-09-30T01:18:13;9.20;;;5.57;;
19675;SDS011;39539;52.202;9.876;2023-09-30T01:20:42;11.13;;;6.05;;
19675;SDS011;39539;52.202;9.876;2023-09-30T01:23:07;12.48;;;6.25;;
19675;SDS011;39539;52.202;9.876;2023-09-30T01:25:43;11.00;;;6.20;;
19675;SDS011;39539;52.202;9.876;2023-09-30T01:28:12;9.40;;;5.80;;
19675;SDS011;39539;52.202;9.876;2023-09-30T01:30:39;9.73;;;6.15;;
19675;SDS011;39539;52.202;9.876;2023-09-30T01:33:08;9.45;;;6.38;;
19675;SDS011;39539;52.202;9.876;2023-09-30T01:35:37;8.25;;;5.97;;
19675;SDS011;39539;52.202;9.876;2023-09-30T01:38:05;12.35;;;6.45;;
19675;SDS011;39539;52.202;9.876;2023-09-30T01:40:31;8.65;;;6.20;;
19675;SDS011;39539;52.202;9.876;2023-09-30T01:42:56;11.20;;;6.43;;
19675;SDS011;39539;52.202;9.876;2023-09-30T01:45:22;14.13;;;7.30;;
19675;SDS011;39539;52.202;9.876;2023-09-30T01:47:48;10.88;;;6.65;;
19675;SDS011;39539;52.202;9.876;2023-09-30T01:50:14;10.23;;;6.68;;
19675;SDS011;39539;52.202;9.876;2023-09-30T01:52:41;10.88;;;7.03;;
19675;SDS011;39539;52.202;9.876;2023-09-30T01:55:06;9.70;;;6.75;;
19675;SDS011;39539;52.202;9.876;2023-09-30T01:57:44;10.23;;;7.63;;
19675;SDS011;39539;52.202;9.876;2023-09-30T02:00:09;11.07;;;6.60;;
19675;SDS011;39539;52.202;9.876;2023-09-30T02:02:37;10.43;;;6.60;;
19675;SDS011;39539;52.202;9.876;2023-09-30T02:05:03;10.27;;;6.78;;
19675;SDS011;39539;52.202;9.876;2023-09-30T02:07:29;10.18;;;7.20;;
19675;SDS011;39539;52.202;9.876;2023-09-30T02:09:57;11.60;;;6.88;;
19675;SDS011;39539;52.202;9.876;2023-09-30T02:12:22;11.73;;;7.05;;
19675;SDS011;39539;52.202;9.876;2023-09-30T02:14:51;12.90;;;6.70;;
19675;SDS011;39539;52.202;9.876;2023-09-30T02:17:17;13.10;;;6.97;;
19675;SDS011;39539;52.202;9.876;2023-09-30T02:19:46;10.10;;;6.88;;
19675;SDS011;39539;52.202;9.876;2023-09-30T02:22:12;12.43;;;7.35;;
19675;SDS011;39539;52.202;9.876;2023-09-30T02:24:42;12.32;;;6.65;;
19675;SDS011;39539;52.202;9.876;2023-09-30T02:27:09;17.50;;;7.50;;
19675;SDS011;39539;52.202;9.876;2023-09-30T02:29:35;18.30;;;7.40;;
19675;SDS011;39539;52.202;9.876;2023-09-30T02:32:03;11.18;;;7.03;;
19675;SDS011;39539;52.202;9.876;2023-09-30T02:37:19;11.02;;;6.07;;
19675;SDS011;39539;52.202;9.876;2023-09-30T02:39:45;12.40;;;6.65;;
19675;SDS011;39539;52.202;9.876;2023-09-30T02:42:15;11.65;;;7.00;;
19675;SDS011;39539;52.202;9.876;2023-09-30T02:47:46;13.27;;;6.95;;
19675;SDS011;39539;52.202;9.876;2023-09-30T02:53:03;12.32;;;6.60;;
19675;SDS011;39539;52.202;9.876;2023-09-30T02:58:31;13.10;;;6.88;;
19675;SDS011;39539;52.202;9.876;2023-09-30T03:01:14;11.05;;;7.25;;
19675;SDS011;39539;52.202;9.876;2023-09-30T03:03:43;13.13;;;7.28;;
19675;SDS011;39539;52.202;9.876;2023-09-30T03:06:15;14.13;;;7.40;;
19675;SDS011;39539;52.202;9.876;2023-09-30T03:08:43;12.85;;;7.47;;
19675;SDS011;39539;52.202;9.876;2023-09-30T03:11:10;12.50;;;7.25;;
19675;SDS011;39539;52.202;9.876;2023-09-30T03:13:37;10.85;;;6.80;;
19675;SDS011;39539;52.202;9.876;2023-09-30T03:16:08;11.90;;;7.25;;
19675;SDS011;39539;52.202;9.876;2023-09-30T03:18:34;11.30;;;7.18;;
19675;SDS011;39539;52.202;9.876;2023-09-30T03:21:01;14.45;;;7.57;;
19675;SDS011;39539;52.202;9.876;2023-09-30T03:23:34;16.80;;;7.95;;
19675;SDS011;39539;52.202;9.876;2023-09-30T03:28:48;13.13;;;6.60;;
19675;SDS011;39539;52.202;9.876;2023-09-30T03:31:20;12.27;;;6.72;;
19675;SDS011;39539;52.202;9.876;2023-09-30T03:33:49;13.05;;;7.38;;
19675;SDS011;39539;52.202;9.876;2023-09-30T03:36:21;12.73;;;7.20;;
19675;SDS011;39539;52.202;9.876;2023-09-30T03:38:55;12.10;;;7.30;;
19675;SDS011;39539;52.202;9.876;2023-09-30T03:41:22;11.07;;;6.68;;
19675;SDS011;39539;52.202;9.876;2023-09-30T03:43:57;10.75;;;6.75;;
19675;SDS011;39539;52.202;9.876;2023-09-30T03:46:34;13.15;;;6.78;;
19675;SDS011;39539;52.202;9.876;2023-09-30T03:49:00;10.45;;;6.50;;
19675;SDS011;39539;52.202;9.876;2023-09-30T03:51:34;12.90;;;6.95;;
19675;SDS011;39539;52.202;9.876;2023-09-30T03:54:02;10.85;;;6.72;;
19675;SDS011;39539;52.202;9.876;2023-09-30T03:56:29;10.73;;;6.78;;
19675;SDS011;39539;52.202;9.876;2023-09-30T03:58:55;11.70;;;7.38;;
19675;SDS011;39539;52.202;9.876;2023-09-30T04:01:23;12.20;;;7.30;;
19675;SDS011;39539;52.202;9.876;2023-09-30T04:03:54;9.88;;;6.53;;
19675;SDS011;39539;52.202;9.876;2023-09-30T04:06:24;10.20;;;6.60;;
19675;SDS011;39539;52.202;9.876;2023-09-30T04:08:51;13.30;;;6.43;;
19675;SDS011;39539;52.202;9.876;2023-09-30T04:11:16;13.70;;;7.22;;
19675;SDS011;39539;52.202;9.876;2023-09-30T04:13:46;12.98;;;6.70;;
19675;SDS011;39539;52.202;9.876;2023-09-30T04:16:12;10.13;;;6.18;;
19675;SDS011;39539;52.202;9.876;2023-09-30T04:18:37;17.25;;;7.45;;
19675;SDS011;39539;52.202;9.876;2023-09-30T04:21:06;12.23;;;6.40;;
19675;SDS011;39539;52.202;9.876;2023-09-30T04:23:34;10.85;;;5.97;;
19675;SDS011;39539;52.202;9.876;2023-09-30T04:26:04;13.82;;;6.30;;
19675;SDS011;39539;52.202;9.876;2023-09-30T04:28:30;14.05;;;6.22;;
19675;SDS011;39539;52.202;9.876;2023-09-30T04:30:57;14.52;;;6.10;;
19675;SDS011;39539;52.202;9.876;2023-09-30T04:33:24;9.38;;;6.50;;
19675;SDS011;39539;52.202;9.876;2023-09-30T04:35:51;11.25;;;6.45;;
19675;SDS011;39539;52.202;9.876;2023-09-30T04:38:16;14.10;;;7.47;;
19675;SDS011;39539;52.202;9.876;2023-09-30T04:40:42;10.50;;;6.97;;
19675;SDS011;39539;52.202;9.876;2023-09-30T04:43:10;11.95;;;7.88;;
19675;SDS011;39539;52.202;9.876;2023-09-30T04:45:36;11.35;;;7.75;;
19675;SDS011;39539;52.202;9.876;2023-09-30T04:48:01;11.75;;;7.10;;
19675;SDS011;39539;52.202;9.876;2023-09-30T04:50:27;13.00;;;7.82;;
19675;SDS011;39539;52.202;9.876;2023-09-30T04:52:56;11.50;;;7.68;;
19675;SDS011;39539;52.202;9.876;2023-09-30T04:55:31;11.43;;;7.63;;
19675;SDS011;39539;52.202;9.876;2023-09-30T04:57:59;16.73;;;7.85;;
19675;SDS011;39539;52.202;9.876;2023-09-30T05:00:24;11.68;;;7.15;;
19675;SDS011;39539;52.202;9.876;2023-09-30T05:02:54;11.25;;;6.40;;
19675;SDS011;39539;52.202;9.876;2023-09-30T05:05:21;11.43;;;6.28;;
19675;SDS011;39539;52.202;9.876;2023-09-30T05:07:46;10.52;;;6.25;;
19675;SDS011;39539;52.202;9.876;2023-09-30T05:10:16;14.88;;;6.78;;
19675;SDS011;39539;52.202;9.876;2023-09-30T05:12:43;10.95;;;6.20;;
19675;SDS011;39539;52.202;9.876;2023-09-30T05:15:11;15.63;;;6.68;;
19675;SDS011;39539;52.202;9.876;2023-09-30T05:17:38;12.38;;;5.75;;
19675;SDS011;39539;52.202;9.876;2023-09-30T05:20:05;11.73;;;5.93;;
19675;SDS011;39539;52.202;9.876;2023-09-30T05:22:33;11.57;;;5.75;;
19675;SDS011;39539;52.202;9.876;2023-09-30T05:24:59;11.75;;;5.80;;
19675;SDS011;39539;52.202;9.876;2023-09-30T05:27:25;10.70;;;5.72;;
19675;SDS011;39539;52.202;9.876;2023-09-30T05:29:54;13.60;;;6.13;;
19675;SDS011;39539;52.202;9.876;2023-09-30T05:32:20;12.38;;;6.35;;
19675;SDS011;39539;52.202;9.876;2023-09-30T05:34:48;11.52;;;6.35;;
19675;SDS011;39539;52.202;9.876;2023-09-30T05:37:15;12.77;;;5.82;;
19675;SDS011;39539;52.202;9.876;2023-09-30T05:39:43;10.88;;;5.50;;
19675;SDS011;39539;52.202;9.876;2023-09-30T05:42:10;12.18;;;6.18;;
19675;SDS011;39539;52.202;9.876;2023-09-30T05:44:36;11.45;;;5.82;;
19675;SDS011;39539;52.202;9.876;2023-09-30T05:47:01;11.80;;;5.80;;
19675;SDS011;39539;52.202;9.876;2023-09-30T05:49:30;10.48;;;6.00;;
19675;SDS011;39539;52.202;9.876;2023-09-30T05:51:57;12.25;;;6.28;;
19675;SDS011;39539;52.202;9.876;2023-09-30T05:54:22;12.90;;;6.40;;
19675;SDS011;39539;52.202;9.876;2023-09-30T05:56:48;9.27;;;5.63;;
19675;SDS011;39539;52.202;9.876;2023-09-30T05:59:14;8.88;;;5.65;;
19675;SDS011;39539;52.202;9.876;2023-09-30T06:01:39;10.88;;;5.40;;
19675;SDS011;39539;52.202;9.876;2023-09-30T06:04:07;11.60;;;5.35;;
19675;SDS011;39539;52.202;9.876;2023-09-30T06:06:33;10.90;;;5.50;;
19675;SDS011;39539;52.202;9.876;2023-09-30T06:08:59;10.30;;;5.07;;
19675;SDS011;39539;52.202;9.876;2023-09-30T06:11:24;10.50;;;5.28;;
19675;SDS011;39539;52.202;9.876;2023-09-30T06:13:53;8.63;;;5.38;;
19675;SDS011;39539;52.202;9.876;2023-09-30T06:16:19;9.73;;;5.68;;
19675;SDS011;39539;52.202;9.876;2023-09-30T06:18:45;10.50;;;5.72;;
19675;SDS011;39539;52.202;9.876;2023-09-30T06:21:11;9.93;;;5.53;;
19675;SDS011;39539;52.202;9.876;2023-09-30T06:23:42;10.88;;;5.30;;
19675;SDS011;39539;52.202;9.876;2023-09-30T06:26:08;9.80;;;5.10;;
19675;SDS011;39539;52.202;9.876;2023-09-30T06:28:34;10.18;;;5.25;;
19675;SDS011;39539;52.202;9.876;2023-09-30T06:31:09;12.75;;;5.80;;
19675;SDS011;39539;52.202;9.876;2023-09-30T06:33:36;9.77;;;4.90;;
19675;SDS011;39539;52.202;9.876;2023-09-30T06:36:07;10.75;;;5.43;;
19675;SDS011;39539;52.202;9.876;2023-09-30T06:38:36;14.52;;;5.75;;
19675;SDS011;39539;52.202;9.876;2023-09-30T06:41:04;10.45;;;5.20;;
19675;SDS011;39539;52.202;9.876;2023-09-30T06:43:30;8.32;;;4.93;;
19675;SDS011;39539;52.202;9.876;2023-09-30T06:45:57;11.20;;;5.32;;
19675;SDS011;39539;52.202;9.876;2023-09-30T06:48:24;9.82;;;4.70;;
19675;SDS011;39539;52.202;9.876;2023-09-30T06:50:50;9.15;;;4.50;;
19675;SDS011;39539;52.202;9.876;2023-09-30T06:53:30;7.20;;;4.07;;
19675;SDS011;39539;52.202;9.876;2023-09-30T06:55:55;10.93;;;4.57;;
19675;SDS011;39539;52.202;9.876;2023-09-30T06:58:26;7.32;;;3.78;;
19675;SDS011;39539;52.202;9.876;2023-09-30T07:00:55;6.43;;;3.40;;
19675;SDS011;39539;52.202;9.876;2023-09-30T07:03:20;9.27;;;4.25;;
19675;SDS011;39539;52.202;9.876;2023-09-30T07:05:48;6.30;;;3.53;;
19675;SDS011;39539;52.202;9.876;2023-09-30T07:08:17;6.40;;;3.42;;
19675;SDS011;39539;52.202;9.876;2023-09-30T07:10:43;7.40;;;3.67;;
19675;SDS011;39539;52.202;9.876;2023-09-30T07:13:11;8.35;;;3.60;;
19675;SDS011;39539;52.202;9.876;2023-09-30T07:15:36;6.95;;;3.53;;
19675;SDS011;39539;52.202;9.876;2023-09-30T07:18:11;4.95;;;3.30;;
19675;SDS011;39539;52.202;9.876;2023-09-30T07:20:37;5.70;;;3.45;;
19675;SDS011;39539;52.202;9.876;2023-09-30T07:23:06;6.53;;;3.50;;
19675;SDS011;39539;52.202;9.876;2023-09-30T07:25:33;7.55;;;3.20;;
19675;SDS011;39539;52.202;9.876;2023-09-30T07:28:11;9.30;;;3.28;;
19675;SDS011;39539;52.202;9.876;2023-09-30T07:30:38;8.07;;;3.35;;
19675;SDS011;39539;52.202;9.876;2023-09-30T07:33:08;6.13;;;3.10;;
19675;SDS011;39539;52.202;9.876;2023-09-30T07:35:37;7.03;;;3.13;;
19675;SDS011;39539;52.202;9.876;2023-09-30T07:38:13;6.43;;;3.22;;
19675;SDS011;39539;52.202;9.876;2023-09-30T07:40:39;6.53;;;3.42;;
19675;SDS011;39539;52.202;9.876;2023-09-30T07:43:17;6.75;;;3.45;;
19675;SDS011;39539;52.202;9.876;2023-09-30T07:45:45;7.45;;;3.35;;
19675;SDS011;39539;52.202;9.876;2023-09-30T07:48:16;6.43;;;3.58;;
19675;SDS011;39539;52.202;9.876;2023-09-30T07:50:47;5.90;;;3.30;;
19675;SDS011;39539;52.202;9.876;2023-09-30T07:53:13;7.75;;;3.80;;
19675;SDS011;39539;52.202;9.876;2023-09-30T07:55:39;5.38;;;3.05;;
19675;SDS011;39539;52.202;9.876;2023-09-30T07:58:08;6.88;;;3.60;;
19675;SDS011;39539;52.202;9.876;2023-09-30T08:00:33;8.70;;;3.65;;
19675;SDS011;39539;52.202;9.876;2023-09-30T08:03:01;6.22;;;3.00;;
19675;SDS011;39539;52.202;9.876;2023-09-30T08:05:27;5.18;;;3.03;;
19675;SDS011;39539;52.202;9.876;2023-09-30T08:07:53;5.80;;;3.33;;
19675;SDS011;39539;52.202;9.876;2023-09-30T08:10:20;9.18;;;3.70;;
19675;SDS011;39539;52.202;9.876;2023-09-30T08:12:45;6.32;;;3.17;;
19675;SDS011;39539;52.202;9.876;2023-09-30T08:15:13;7.45;;;3.20;;
19675;SDS011;39539;52.202;9.876;2023-09-30T08:17:44;5.95;;;3.05;;
19675;SDS011;39539;52.202;9.876;2023-09-30T08:20:11;5.97;;;3.38;;
19675;SDS011;39539;52.202;9.876;2023-09-30T08:22:38;6.63;;;3.22;;
19675;SDS011;39539;52.202;9.876;2023-09-30T08:25:05;6.68;;;3.53;;
19675;SDS011;39539;52.202;9.876;2023-09-30T08:27:32;7.03;;;3.67;;
19675;SDS011;39539;52.202;9.876;2023-09-30T08:32:47;7.18;;;3.60;;
19675;SDS011;39539;52.202;9.876;2023-09-30T08:35:13;8.13;;;3.97;;
19675;SDS011;39539;52.202;9.876;2023-09-30T08:37:40;6.70;;;3.08;;
19675;SDS011;39539;52.202;9.876;2023-09-30T08:40:07;6.45;;;3.15;;
19675;SDS011;39539;52.202;9.876;2023-09-30T08:42:35;5.93;;;3.05;;
19675;SDS011;39539;52.202;9.876;2023-09-30T08:45:13;6.65;;;2.85;;
19675;SDS011;39539;52.202;9.876;2023-09-30T08:47:41;6.50;;;3.30;;
19675;SDS011;39539;52.202;9.876;2023-09-30T08:50:23;5.45;;;2.80;;
19675;SDS011;39539;52.202;9.876;2023-09-30T08:52:56;5.68;;;3.00;;
19675;SDS011;39539;52.202;9.876;2023-09-30T08:55:22;7.03;;;3.20;;
19675;SDS011;39539;52.202;9.876;2023-09-30T08:57:52;8.60;;;3.50;;
19675;SDS011;39539;52.202;9.876;2023-09-30T09:00:20;8.68;;;3.58;;
19675;SDS011;39539;52.202;9.876;2023-09-30T09:02:45;6.68;;;3.08;;
19675;SDS011;39539;52.202;9.876;2023-09-30T09:05:12;6.13;;;3.65;;
19675;SDS011;39539;52.202;9.876;2023-09-30T09:07:44;9.45;;;3.53;;
19675;SDS011;39539;52.202;9.876;2023-09-30T09:10:11;5.05;;;2.70;;
19675;SDS011;39539;52.202;9.876;2023-09-30T09:12:40;5.75;;;3.10;;
19675;SDS011;39539;52.202;9.876;2023-09-30T09:15:20;7.18;;;3.38;;
19675;SDS011;39539;52.202;9.876;2023-09-30T09:17:48;5.82;;;2.85;;
19675;SDS011;39539;52.202;9.876;2023-09-30T09:20:19;5.10;;;2.80;;
19675;SDS011;39539;52.202;9.876;2023-09-30T09:22:51;8.02;;;3.20;;
19675;SDS011;39539;52.202;9.876;2023-09-30T09:25:23;5.20;;;3.17;;
19675;SDS011;39539;52.202;9.876;2023-09-30T09:27:53;5.88;;;3.20;;
19675;SDS011;39539;52.202;9.876;2023-09-30T09:33:02;6.82;;;3.03;;
19675;SDS011;39539;52.202;9.876;2023-09-30T09:35:36;5.55;;;3.25;;
19675;SDS011;39539;52.202;9.876;2023-09-30T09:38:06;7.38;;;3.03;;
19675;SDS011;39539;52.202;9.876;2023-09-30T09:40:39;5.43;;;2.78;;
19675;SDS011;39539;52.202;9.876;2023-09-30T09:43:06;6.20;;;3.10;;
19675;SDS011;39539;52.202;9.876;2023-09-30T09:45:33;5.45;;;2.75;;
19675;SDS011;39539;52.202;9.876;2023-09-30T09:48:00;4.95;;;2.72;;
19675;SDS011;39539;52.202;9.876;2023-09-30T09:50:27;5.88;;;2.50;;
19675;SDS011;39539;52.202;9.876;2023-09-30T09:52:56;7.43;;;3.03;;
19675;SDS011;39539;52.202;9.876;2023-09-30T09:55:25;3.85;;;2.10;;
19675;SDS011;39539;52.202;9.876;2023-09-30T09:57:57;3.03;;;1.95;;
19675;SDS011;39539;52.202;9.876;2023-09-30T10:00:28;4.68;;;2.08;;
19675;SDS011;39539;52.202;9.876;2023-09-30T10:03:01;3.58;;;2.20;;
19675;SDS011;39539;52.202;9.876;2023-09-30T10:05:33;4.97;;;2.28;;
19675;SDS011;39539;52.202;9.876;2023-09-30T10:08:03;4.43;;;2.30;;
19675;SDS011;39539;52.202;9.876;2023-09-30T10:10:37;3.78;;;2.22;;
19675;SDS011;39539;52.202;9.876;2023-09-30T10:13:04;4.88;;;2.20;;
19675;SDS011;39539;52.202;9.876;2023-09-30T10:18:24;5.38;;;2.60;;
19675;SDS011;39539;52.202;9.876;2023-09-30T10:21:07;6.10;;;2.75;;
19675;SDS011;39539;52.202;9.876;2023-09-30T10:23:34;4.85;;;2.55;;
19675;SDS011;39539;52.202;9.876;2023-09-30T10:28:48;8.23;;;2.42;;
19675;SDS011;39539;52.202;9.876;2023-09-30T10:31:19;5.07;;;2.47;;
19675;SDS011;39539;52.202;9.876;2023-09-30T10:36:30;6.80;;;2.60;;
19675;SDS011;39539;52.202;9.876;2023-09-30T10:42:11;5.30;;;2.13;;
19675;SDS011;39539;52.202;9.876;2023-09-30T10:50:50;3.72;;;2.10;;
19675;SDS011;39539;52.202;9.876;2023-09-30T10:53:17;5.45;;;2.35;;
19675;SDS011;39539;52.202;9.876;2023-09-30T10:55:44;4.28;;;2.10;;
19675;SDS011;39539;52.202;9.876;2023-09-30T10:58:10;4.93;;;1.85;;
19675;SDS011;39539;52.202;9.876;2023-09-30T11:00:37;5.30;;;2.40;;
19675;SDS011;39539;52.202;9.876;2023-09-30T11:03:04;5.32;;;2.22;;
19675;SDS011;39539;52.202;9.876;2023-09-30T11:05:31;5.25;;;2.60;;
19675;SDS011;39539;52.202;9.876;2023-09-30T11:07:59;5.25;;;1.88;;
19675;SDS011;39539;52.202;9.876;2023-09-30T11:10:28;2.45;;;1.30;;
19675;SDS011;39539;52.202;9.876;2023-09-30T11:12:54;3.22;;;1.52;;
19675;SDS011;39539;52.202;9.876;2023-09-30T11:15:23;5.13;;;1.90;;
19675;SDS011;39539;52.202;9.876;2023-09-30T11:17:52;4.82;;;1.70;;
19675;SDS011;39539;52.202;9.876;2023-09-30T11:20:19;3.47;;;1.50;;
19675;SDS011;39539;52.202;9.876;2023-09-30T11:22:47;3.70;;;2.05;;
19675;SDS011;39539;52.202;9.876;2023-09-30T11:25:19;3.30;;;1.80;;
19675;SDS011;39539;52.202;9.876;2023-09-30T11:27:48;2.60;;;1.50;;
19675;SDS011;39539;52.202;9.876;2023-09-30T11:30:14;3.17;;;1.67;;
19675;SDS011;39539;52.202;9.876;2023-09-30T11:32:41;3.20;;;1.67;;
19675;SDS011;39539;52.202;9.876;2023-09-30T11:35:23;3.90;;;1.67;;
19675;SDS011;39539;52.202;9.876;2023-09-30T11:37:50;2.85;;;1.65;;
19675;SDS011;39539;52.202;9.876;2023-09-30T11:40:29;2.80;;;1.70;;
19675;SDS011;39539;52.202;9.876;2023-09-30T11:43:10;2.85;;;1.42;;
19675;SDS011;39539;52.202;9.876;2023-09-30T11:45:40;3.33;;;1.60;;
19675;SDS011;39539;52.202;9.876;2023-09-30T11:48:18;4.07;;;1.90;;
19675;SDS011;39539;52.202;9.876;2023-09-30T11:50:47;2.85;;;1.65;;
19675;SDS011;39539;52.202;9.876;2023-09-30T11:53:17;4.80;;;1.88;;
19675;SDS011;39539;52.202;9.876;2023-09-30T11:55:51;5.03;;;1.80;;
19675;SDS011;39539;52.202;9.876;2023-09-30T11:58:23;4.70;;;1.90;;
19675;SDS011;39539;52.202;9.876;2023-09-30T12:01:00;3.47;;;1.80;;
19675;SDS011;39539;52.202;9.876;2023-09-30T12:03:26;3.00;;;1.67;;
19675;SDS011;39539;52.202;9.876;2023-09-30T12:05:53;6.32;;;1.83;;
19675;SDS011;39539;52.202;9.876;2023-09-30T12:08:23;3.80;;;1.80;;
19675;SDS011;39539;52.202;9.876;2023-09-30T12:10:50;3.92;;;1.90;;
19675;SDS011;39539;52.202;9.876;2023-09-30T12:13:15;5.97;;;1.73;;
19675;SDS011;39539;52.202;9.876;2023-09-30T12:15:41;3.08;;;1.70;;
19675;SDS011;39539;52.202;9.876;2023-09-30T12:18:19;2.70;;;1.48;;
19675;SDS011;39539;52.202;9.876;2023-09-30T12:20:49;3.58;;;2.10;;
19675;SDS011;39539;52.202;9.876;2023-09-30T12:23:18;3.40;;;2.00;;
19675;SDS011;39539;52.202;9.876;2023-09-30T12:25:46;4.53;;;1.85;;
19675;SDS011;39539;52.202;9.876;2023-09-30T12:28:13;4.95;;;1.92;;
19675;SDS011;39539;52.202;9.876;2023-09-30T12:30:41;4.15;;;1.50;;
19675;SDS011;39539;52.202;9.876;2023-09-30T12:35:56;2.00;;;1.20;;
19675;SDS011;39539;52.202;9.876;2023-09-30T12:38:26;1.92;;;1.35;;
19675;SDS011;39539;52.202;9.876;2023-09-30T12:40:54;3.60;;;1.63;;
19675;SDS011;39539;52.202;9.876;2023-09-30T12:43:36;4.22;;;1.50;;
19675;SDS011;39539;52.202;9.876;2023-09-30T12:46:08;3.05;;;1.52;;
19675;SDS011;39539;52.202;9.876;2023-09-30T12:48:34;4.05;;;1.92;;
19675;SDS011;39539;52.202;9.876;2023-09-30T12:51:03;3.22;;;1.75;;
19675;SDS011;39539;52.202;9.876;2023-09-30T12:53:36;2.97;;;1.83;;
19675;SDS011;39539;52.202;9.876;2023-09-30T12:56:05;3.42;;;1.95;;
19675;SDS011;39539;52.202;9.876;2023-09-30T12:58:33;3.97;;;1.70;;
19675;SDS011;39539;52.202;9.876;2023-09-30T13:01:00;3.17;;;1.45;;
19675;SDS011;39539;52.202;9.876;2023-09-30T13:03:28;3.55;;;2.00;;
19675;SDS011;39539;52.202;9.876;2023-09-30T13:05:54;2.78;;;1.80;;
19675;SDS011;39539;52.202;9.876;2023-09-30T13:08:19;3.53;;;1.52;;
19675;SDS011;39539;52.202;9.876;2023-09-30T13:13:29;3.20;;;1.83;;
19675;SDS011;39539;52.202;9.876;2023-09-30T13:16:00;3.25;;;1.83;;
19675;SDS011;39539;52.202;9.876;2023-09-30T13:18:28;4.32;;;2.00;;
19675;SDS011;39539;52.202;9.876;2023-09-30T13:20:55;3.22;;;1.88;;
19675;SDS011;39539;52.202;9.876;2023-09-30T13:23:25;4.20;;;2.15;;
19675;SDS011;39539;52.202;9.876;2023-09-30T13:25:54;3.95;;;2.20;;
19675;SDS011;39539;52.202;9.876;2023-09-30T13:28:22;4.00;;;1.92;;
19675;SDS011;39539;52.202;9.876;2023-09-30T13:30:57;5.00;;;2.35;;
19675;SDS011;39539;52.202;9.876;2023-09-30T13:33:22;2.65;;;1.70;;
19675;SDS011;39539;52.202;9.876;2023-09-30T13:35:51;2.58;;;1.83;;
19675;SDS011;39539;52.202;9.876;2023-09-30T13:38:16;3.47;;;1.98;;
19675;SDS011;39539;52.202;9.876;2023-09-30T13:40:42;4.18;;;1.95;;
19675;SDS011;39539;52.202;9.876;2023-09-30T13:43:08;4.05;;;2.03;;
19675;SDS011;39539;52.202;9.876;2023-09-30T13:45:34;5.30;;;1.90;;
19675;SDS011;39539;52.202;9.876;2023-09-30T13:48:01;3.15;;;2.00;;
19675;SDS011;39539;52.202;9.876;2023-09-30T13:50:27;3.35;;;1.95;;
19675;SDS011;39539;52.202;9.876;2023-09-30T13:52:53;3.00;;;2.05;;
19675;SDS011;39539;52.202;9.876;2023-09-30T13:55:19;2.70;;;1.70;;
19675;SDS011;39539;52.202;9.876;2023-09-30T13:57:46;5.45;;;1.80;;
19675;SDS011;39539;52.202;9.876;2023-09-30T14:00:13;3.40;;;2.17;;
19675;SDS011;39539;52.202;9.876;2023-09-30T14:02:40;3.20;;;1.98;;
19675;SDS011;39539;52.202;9.876;2023-09-30T14:05:07;14.45;;;2.10;;
19675;SDS011;39539;52.202;9.876;2023-09-30T14:07:33;3.28;;;2.10;;
19675;SDS011;39539;52.202;9.876;2023-09-30T14:09:59;3.47;;;2.25;;
19675;SDS011;39539;52.202;9.876;2023-09-30T14:12:25;2.60;;;1.92;;
19675;SDS011;39539;52.202;9.876;2023-09-30T14:14:51;4.38;;;2.08;;
19675;SDS011;39539;52.202;9.876;2023-09-30T14:17:17;3.55;;;2.20;;
19675;SDS011;39539;52.202;9.876;2023-09-30T14:19:44;4.13;;;2.35;;
19675;SDS011;39539;52.202;9.876;2023-09-30T14:22:22;4.10;;;2.30;;
19675;SDS011;39539;52.202;9.876;2023-09-30T14:24:47;2.17;;;1.83;;
19675;SDS011;39539;52.202;9.876;2023-09-30T14:29:58;4.93;;;2.38;;
19675;SDS011;39539;52.202;9.876;2023-09-30T14:32:25;2.45;;;2.08;;
19675;SDS011;39539;52.202;9.876;2023-09-30T14:35:03;5.18;;;2.00;;
19675;SDS011;39539;52.202;9.876;2023-09-30T14:37:33;5.18;;;2.35;;
19675;SDS011;39539;52.202;9.876;2023-09-30T14:39:58;2.25;;;1.90;;
19675;SDS011;39539;52.202;9.876;2023-09-30T14:42:24;3.67;;;2.22;;
19675;SDS011;39539;52.202;9.876;2023-09-30T14:44:49;3.78;;;2.40;;
19675;SDS011;39539;52.202;9.876;2023-09-30T14:47:16;3.80;;;2.25;;
19675;SDS011;39539;52.202;9.876;2023-09-30T14:49:43;3.20;;;2.20;;
19675;SDS011;39539;52.202;9.876;2023-09-30T14:52:14;3.50;;;2.15;;
19675;SDS011;39539;52.202;9.876;2023-09-30T14:54:41;2.72;;;1.92;;
19675;SDS011;39539;52.202;9.876;2023-09-30T14:57:07;3.28;;;1.85;;
19675;SDS011;39539;52.202;9.876;2023-09-30T14:59:38;3.53;;;2.15;;
19675;SDS011;39539;52.202;9.876;2023-09-30T15:02:03;3.67;;;2.33;;
19675;SDS011;39539;52.202;9.876;2023-09-30T15:04:31;4.80;;;2.17;;
19675;SDS011;39539;52.202;9.876;2023-09-30T15:06:59;3.67;;;2.28;;
19675;SDS011;39539;52.202;9.876;2023-09-30T15:09:26;5.00;;;2.03;;
19675;SDS011;39539;52.202;9.876;2023-09-30T15:11:55;2.45;;;1.70;;
19675;SDS011;39539;52.202;9.876;2023-09-30T15:14:21;2.92;;;1.90;;
19675;SDS011;39539;52.202;9.876;2023-09-30T15:16:46;4.53;;;2.17;;
19675;SDS011;39539;52.202;9.876;2023-09-30T15:19:12;4.28;;;2.05;;
19675;SDS011;39539;52.202;9.876;2023-09-30T15:21:49;4.68;;;2.40;;
19675;SDS011;39539;52.202;9.876;2023-09-30T15:24:20;3.65;;;2.22;;
19675;SDS011;39539;52.202;9.876;2023-09-30T15:26:45;4.20;;;2.25;;
19675;SDS011;39539;52.202;9.876;2023-09-30T15:29:11;4.13;;;1.98;;
19675;SDS011;39539;52.202;9.876;2023-09-30T15:31:36;5.30;;;2.30;;
19675;SDS011;39539;52.202;9.876;2023-09-30T15:34:04;2.72;;;2.10;;
19675;SDS011;39539;52.202;9.876;2023-09-30T15:36:30;4.28;;;2.30;;
19675;SDS011;39539;52.202;9.876;2023-09-30T15:38:56;2.45;;;2.05;;